createdAt,value
2017-12-28T00:00:22.206Z,95274.28
2017-12-28T00:01:25.679Z,95272.05
2017-12-28T00:02:28.583Z,95272.50
2017-12-28T00:03:31.608Z,95274.57
2017-12-28T00:04:34.631Z,95277.28
2017-12-28T00:05:37.587Z,95272.94
2017-12-28T00:06:41.264Z,95280.23
2017-12-28T00:07:44.533Z,95278.64
2017-12-28T00:08:48.181Z,95276.35
2017-12-28T00:09:51.164Z,95275.72
2017-12-28T00:10:54.238Z,95275.27
2017-12-28T00:11:57.181Z,95274.14
2017-12-28T00:13:00.616Z,95286.53
2017-12-28T00:14:03.617Z,95282.69
2017-12-28T00:15:06.627Z,95282.11
2017-12-28T00:16:09.581Z,95269.68
2017-12-28T00:17:13.165Z,95279.17
2017-12-28T00:18:17.080Z,95282.54
2017-12-28T00:19:20.455Z,95285.09
2017-12-28T00:20:23.423Z,95290.52
2017-12-28T00:21:26.356Z,95292.94
2017-12-28T00:22:29.343Z,95290.42
2017-12-28T00:23:32.956Z,95293.22
2017-12-28T00:24:36.457Z,95307.48
2017-12-28T00:25:40.427Z,95301.15
2017-12-28T00:26:44.399Z,95300.57
2017-12-28T00:27:47.666Z,95302.05
2017-12-28T00:28:51.649Z,95306.63
2017-12-28T00:29:55.817Z,95311.88
2017-12-28T00:30:58.798Z,95304.34
2017-12-28T00:32:04.365Z,95314.78
2017-12-28T00:33:07.515Z,95321.08
2017-12-28T00:34:11.128Z,95309.88
2017-12-28T00:35:14.105Z,95307.59
2017-12-28T00:36:17.226Z,95312.72
2017-12-28T00:37:20.519Z,95312.50
2017-12-28T00:38:23.903Z,95315.90
2017-12-28T00:39:26.873Z,95311.69
2017-12-28T00:40:30.514Z,95308.61
2017-12-28T00:41:33.568Z,95312.47
2017-12-28T00:42:36.600Z,95315.84
2017-12-28T00:43:39.531Z,95311.57
2017-12-28T00:44:42.922Z,95311.03
2017-12-28T00:45:45.945Z,95306.20
2017-12-28T00:46:49.606Z,95315.66
2017-12-28T00:47:52.568Z,95318.41
2017-12-28T00:48:55.791Z,95312.91
2017-12-28T00:49:59.396Z,95319.90
2017-12-28T00:51:03.128Z,95322.27
2017-12-28T00:52:06.214Z,95319.55
2017-12-28T00:53:09.238Z,95321.36
2017-12-28T00:54:12.147Z,95316.84
2017-12-28T00:55:15.125Z,95322.66
2017-12-28T00:56:18.253Z,95322.63
2017-12-28T00:57:21.736Z,95326.80
2017-12-28T00:58:24.695Z,95331.43
2017-12-28T00:59:27.699Z,95336.60
2017-12-28T01:00:30.645Z,95339.36
2017-12-28T01:01:34.635Z,95338.72
2017-12-28T01:02:37.709Z,95344.57
2017-12-28T01:03:41.065Z,95350.51
2017-12-28T01:04:44.069Z,95355.52
2017-12-28T01:05:47.023Z,95355.48
2017-12-28T01:06:49.944Z,95352.02
2017-12-28T01:07:52.813Z,95358.69
2017-12-28T01:08:56.095Z,95355.91
2017-12-28T01:10:00.285Z,95356.01
2017-12-28T01:11:03.135Z,95364.20
2017-12-28T01:12:06.009Z,95358.13
2017-12-28T01:13:08.893Z,95360.16
2017-12-28T01:14:11.904Z,95366.16
2017-12-28T01:15:15.000Z,95363.77
2017-12-28T01:16:18.429Z,95364.41
2017-12-28T01:17:21.430Z,95365.23
2017-12-28T01:18:24.404Z,95379.03
2017-12-28T01:19:27.304Z,95372.57
2017-12-28T01:20:30.212Z,95380.42
2017-12-28T01:21:33.172Z,95381.91
2017-12-28T01:22:36.441Z,95390.30
2017-12-28T01:23:39.319Z,95377.92
2017-12-28T01:24:42.212Z,95393.41
2017-12-28T01:25:45.214Z,95391.30
2017-12-28T01:26:48.170Z,95404.67
2017-12-28T01:27:51.126Z,95402.28
2017-12-28T01:28:55.258Z,95399.94
2017-12-28T01:29:58.163Z,95400.82
2017-12-28T01:31:01.014Z,95408.45
2017-12-28T01:32:04.031Z,95417.88
2017-12-28T01:33:06.980Z,95417.86
2017-12-28T01:34:09.992Z,95414.14
2017-12-28T01:35:14.347Z,95423.87
2017-12-28T01:36:17.380Z,95421.55
2017-12-28T01:37:21.000Z,95427.30
2017-12-28T01:38:24.004Z,95430.83
2017-12-28T01:39:26.956Z,95429.89
2017-12-28T01:40:29.955Z,95437.45
2017-12-28T01:41:33.343Z,95441.77
2017-12-28T01:42:36.405Z,95444.49
2017-12-28T01:43:39.384Z,95442.02
2017-12-28T01:44:42.410Z,95453.23
2017-12-28T01:45:45.374Z,95447.33
2017-12-28T01:46:48.464Z,95449.03
2017-12-28T01:47:51.875Z,95454.15
2017-12-28T01:48:54.906Z,95453.87
2017-12-28T01:49:57.999Z,95459.72
2017-12-28T01:51:00.957Z,95455.81
2017-12-28T01:52:03.875Z,95452.89
2017-12-28T01:53:06.837Z,95465.72
2017-12-28T01:54:10.244Z,95467.95
2017-12-28T01:55:13.230Z,95467.53
2017-12-28T01:56:16.225Z,95475.77
2017-12-28T01:57:19.195Z,95468.80
2017-12-28T01:58:22.157Z,95475.39
2017-12-28T01:59:25.100Z,95475.93
2017-12-28T02:00:28.543Z,95473.19
2017-12-28T02:01:31.656Z,95475.64
2017-12-28T02:02:34.672Z,95479.13
2017-12-28T02:03:37.573Z,95486.07
2017-12-28T02:04:40.416Z,95487.20
2017-12-28T02:05:43.259Z,95487.17
2017-12-28T02:06:46.496Z,95485.66
2017-12-28T02:07:49.352Z,95490.38
2017-12-28T02:08:52.347Z,95493.05
2017-12-28T02:09:55.321Z,95497.55
2017-12-28T02:10:58.260Z,95496.20
2017-12-28T02:12:01.270Z,95502.95
2017-12-28T02:13:04.584Z,95503.87
2017-12-28T02:14:07.568Z,95511.19
2017-12-28T02:15:10.499Z,95515.30
2017-12-28T02:16:13.455Z,95515.23
2017-12-28T02:17:16.388Z,95523.38
2017-12-28T02:18:19.404Z,95518.35
2017-12-28T02:19:22.688Z,95517.97
2017-12-28T02:20:25.580Z,95528.81
2017-12-28T02:21:28.495Z,95527.59
2017-12-28T02:22:31.454Z,95535.16
2017-12-28T02:23:34.388Z,95538.91
2017-12-28T02:24:37.332Z,95536.16
2017-12-28T02:25:40.862Z,95535.59
2017-12-28T02:26:43.795Z,95539.32
2017-12-28T02:27:46.748Z,95542.14
2017-12-28T02:28:49.767Z,95544.61
2017-12-28T02:29:52.723Z,95550.61
2017-12-28T02:30:55.687Z,95551.16
2017-12-28T02:31:59.003Z,95557.23
2017-12-28T02:33:01.965Z,95564.84
2017-12-28T02:34:05.442Z,95557.41
2017-12-28T02:35:08.340Z,95563.06
2017-12-28T02:36:11.326Z,95564.36
2017-12-28T02:37:14.369Z,95560.23
2017-12-28T02:38:17.649Z,95562.91
2017-12-28T02:39:20.549Z,95562.95
2017-12-28T02:40:23.447Z,95571.54
2017-12-28T02:41:26.824Z,95567.08
2017-12-28T02:42:29.827Z,95567.52
2017-12-28T02:43:32.911Z,95569.87
2017-12-28T02:44:36.151Z,95570.36
2017-12-28T02:45:39.125Z,95571.92
2017-12-28T02:46:41.966Z,95574.39
2017-12-28T02:47:44.811Z,95583.97
2017-12-28T02:48:47.851Z,95581.73
2017-12-28T02:49:50.676Z,95579.42
2017-12-28T02:50:53.892Z,95579.20
2017-12-28T02:51:56.730Z,95577.16
2017-12-28T02:52:59.675Z,95581.11
2017-12-28T02:54:02.674Z,95585.15
2017-12-28T02:55:05.602Z,95586.45
2017-12-28T02:56:08.525Z,95595.80
2017-12-28T02:57:11.970Z,95582.90
2017-12-28T02:58:14.823Z,95589.77
2017-12-28T02:59:17.812Z,95593.09
2017-12-28T03:00:20.634Z,95596.61
2017-12-28T03:01:23.471Z,95599.86
2017-12-28T03:02:26.304Z,95597.23
2017-12-28T03:03:29.539Z,95592.61
2017-12-28T03:04:32.491Z,95586.30
2017-12-28T03:05:35.385Z,95593.38
2017-12-28T03:06:38.250Z,95595.79
2017-12-28T03:07:41.131Z,95595.10
2017-12-28T03:08:44.067Z,95594.73
2017-12-28T03:09:47.454Z,95600.59
2017-12-28T03:10:50.373Z,95590.28
2017-12-28T03:11:53.372Z,95599.63
2017-12-28T03:12:56.332Z,95597.09
2017-12-28T03:13:59.274Z,95606.11
2017-12-28T03:15:02.132Z,95603.31
2017-12-28T03:16:06.717Z,95599.85
2017-12-28T03:17:09.530Z,95603.36
2017-12-28T03:18:12.344Z,95597.84
2017-12-28T03:19:15.187Z,95609.39
2017-12-28T03:20:18.023Z,95610.44
2017-12-28T03:21:20.898Z,95611.31
2017-12-28T03:22:24.200Z,95614.02
2017-12-28T03:23:27.134Z,95606.53
2017-12-28T03:24:30.116Z,95606.83
2017-12-28T03:25:33.027Z,95610.92
2017-12-28T03:26:36.109Z,95613.72
2017-12-28T03:27:39.045Z,95615.89
2017-12-28T03:28:42.459Z,95619.20
2017-12-28T03:29:45.425Z,95619.89
2017-12-28T03:30:48.630Z,95618.38
2017-12-28T03:31:51.617Z,95619.67
2017-12-28T03:32:54.612Z,95616.95
2017-12-28T03:33:57.617Z,95623.45
2017-12-28T03:35:01.054Z,95619.88
2017-12-28T03:36:04.028Z,95623.23
2017-12-28T03:37:07.016Z,95624.59
2017-12-28T03:38:10.054Z,95626.27
2017-12-28T03:39:13.031Z,95634.20
2017-12-28T03:40:15.974Z,95630.00
2017-12-28T03:41:19.404Z,95637.17
2017-12-28T03:42:22.909Z,95631.61
2017-12-28T03:43:26.010Z,95638.05
2017-12-28T03:44:29.025Z,95635.07
2017-12-28T03:45:31.986Z,95640.25
2017-12-28T03:46:35.084Z,95633.81
2017-12-28T03:47:38.486Z,95631.92
2017-12-28T03:48:41.481Z,95632.42
2017-12-28T03:49:44.431Z,95639.19
2017-12-28T03:50:47.434Z,95639.55
2017-12-28T03:51:50.378Z,95644.32
2017-12-28T03:52:53.211Z,95639.91
2017-12-28T03:53:56.821Z,95640.43
2017-12-28T03:54:59.757Z,95630.89
2017-12-28T03:56:02.634Z,95649.33
2017-12-28T03:57:05.513Z,95641.27
2017-12-28T03:58:09.380Z,95648.35
2017-12-28T03:59:12.213Z,95646.83
2017-12-28T04:00:15.502Z,95645.96
2017-12-28T04:01:18.346Z,95652.66
2017-12-28T04:02:21.171Z,95650.28
2017-12-28T04:03:23.982Z,95650.55
2017-12-28T04:04:26.944Z,95652.19
2017-12-28T04:05:29.802Z,95658.33
2017-12-28T04:06:33.009Z,95664.37
2017-12-28T04:07:35.925Z,95660.67
2017-12-28T04:08:38.845Z,95658.89
2017-12-28T04:09:41.778Z,95657.54
2017-12-28T04:10:44.689Z,95665.73
2017-12-28T04:11:47.617Z,95667.13
2017-12-28T04:12:50.916Z,95670.66
2017-12-28T04:13:53.833Z,95666.94
2017-12-28T04:14:56.743Z,95677.63
2017-12-28T04:15:59.673Z,95670.56
2017-12-28T04:17:03.235Z,95671.69
2017-12-28T04:18:06.210Z,95676.17
2017-12-28T04:19:09.623Z,95674.13
2017-12-28T04:20:12.544Z,95677.55
2017-12-28T04:21:15.449Z,95678.60
2017-12-28T04:22:19.404Z,95677.12
2017-12-28T04:23:22.329Z,95685.63
2017-12-28T04:24:25.190Z,95689.55
2017-12-28T04:25:28.327Z,95692.48
2017-12-28T04:26:31.166Z,95696.23
2017-12-28T04:27:34.004Z,95696.80
2017-12-28T04:28:36.851Z,95700.25
2017-12-28T04:29:39.685Z,95693.06
2017-12-28T04:30:42.630Z,95707.69
2017-12-28T04:31:45.878Z,95706.34
2017-12-28T04:32:48.782Z,95708.91
2017-12-28T04:33:51.760Z,95708.58
2017-12-28T04:34:54.693Z,95698.54
2017-12-28T04:35:57.601Z,95701.32
2017-12-28T04:37:00.523Z,95715.80
2017-12-28T04:38:03.922Z,95703.12
2017-12-28T04:39:08.623Z,95713.09
2017-12-28T04:40:11.507Z,95703.72
2017-12-28T04:41:14.383Z,95703.98
2017-12-28T04:42:17.255Z,95711.30
2017-12-28T04:43:20.161Z,95716.14
2017-12-28T04:44:23.432Z,95720.73
2017-12-28T04:45:26.374Z,95714.52
2017-12-28T04:46:29.396Z,95717.24
2017-12-28T04:47:32.329Z,95719.41
2017-12-28T04:48:35.319Z,95727.63
2017-12-28T04:49:38.277Z,95725.86
2017-12-28T04:50:41.693Z,95725.30
2017-12-28T04:51:45.411Z,95728.66
2017-12-28T04:52:49.599Z,95721.80
2017-12-28T04:53:52.536Z,95730.71
2017-12-28T04:54:55.473Z,95734.14
2017-12-28T04:55:59.274Z,95735.77
2017-12-28T04:57:02.126Z,95730.75
2017-12-28T04:58:04.958Z,95731.68
2017-12-28T04:59:07.797Z,95741.03
2017-12-28T05:00:10.640Z,95739.00
2017-12-28T05:01:13.448Z,95744.59
2017-12-28T05:02:16.776Z,95749.80
2017-12-28T05:03:19.726Z,95757.95
2017-12-28T05:04:22.672Z,95748.95
2017-12-28T05:05:25.619Z,95758.45
2017-12-28T05:06:28.485Z,95757.05
2017-12-28T05:07:31.342Z,95761.09
2017-12-28T05:08:34.588Z,95764.27
2017-12-28T05:09:38.540Z,95756.56
2017-12-28T05:10:41.462Z,95757.36
2017-12-28T05:11:44.448Z,95763.30
2017-12-28T05:12:47.412Z,95764.81
2017-12-28T05:13:50.342Z,95765.26
2017-12-28T05:14:53.730Z,95766.12
2017-12-28T05:15:56.726Z,95780.38
2017-12-28T05:16:59.681Z,95778.44
2017-12-28T05:18:02.632Z,95773.42
2017-12-28T05:19:05.539Z,95782.20
2017-12-28T05:20:08.525Z,95784.00
2017-12-28T05:21:11.794Z,95787.61
2017-12-28T05:22:14.807Z,95785.87
2017-12-28T05:23:17.768Z,95788.20
2017-12-28T05:24:22.964Z,95790.09
2017-12-28T05:25:25.994Z,95793.17
2017-12-28T05:26:29.273Z,95798.05
2017-12-28T05:27:32.361Z,95800.09
2017-12-28T05:28:35.275Z,95798.20
2017-12-28T05:29:38.227Z,95804.18
2017-12-28T05:30:41.139Z,95805.41
2017-12-28T05:31:44.108Z,95801.75
2017-12-28T05:32:47.929Z,95800.15
2017-12-28T05:33:52.178Z,95811.44
2017-12-28T05:34:55.188Z,95808.52
2017-12-28T05:35:58.187Z,95807.86
2017-12-28T05:37:01.114Z,95813.10
2017-12-28T05:38:04.166Z,95814.62
2017-12-28T05:39:07.405Z,95810.88
2017-12-28T05:40:10.435Z,95808.94
2017-12-28T05:41:13.302Z,95816.18
2017-12-28T05:42:17.115Z,95814.75
2017-12-28T05:43:20.117Z,95808.64
2017-12-28T05:44:23.077Z,95810.96
2017-12-28T05:45:26.414Z,95813.78
2017-12-28T05:46:29.378Z,95815.92
2017-12-28T05:47:32.225Z,95819.83
2017-12-28T05:48:35.172Z,95813.57
2017-12-28T05:49:38.005Z,95819.29
2017-12-28T05:50:40.919Z,95819.47
2017-12-28T05:51:44.411Z,95824.24
2017-12-28T05:52:47.236Z,95830.16
2017-12-28T05:53:50.192Z,95827.94
2017-12-28T05:54:53.018Z,95827.20
2017-12-28T05:55:55.864Z,95829.66
2017-12-28T05:56:58.711Z,95830.28
2017-12-28T05:58:01.900Z,95829.43
2017-12-28T05:59:04.794Z,95842.30
2017-12-28T06:00:07.723Z,95839.47
2017-12-28T06:01:10.607Z,95840.70
2017-12-28T06:02:13.555Z,95839.52
2017-12-28T06:03:16.645Z,95842.14
2017-12-28T06:04:19.886Z,95851.42
2017-12-28T06:05:22.800Z,95842.76
2017-12-28T06:06:25.849Z,95850.00
2017-12-28T06:07:28.884Z,95845.70
2017-12-28T06:08:31.757Z,95842.71
2017-12-28T06:09:34.717Z,95846.06
2017-12-28T06:10:37.926Z,95844.22
2017-12-28T06:11:40.891Z,95850.27
2017-12-28T06:12:43.794Z,95853.95
2017-12-28T06:13:46.740Z,95853.67
2017-12-28T06:14:49.819Z,95852.96
2017-12-28T06:15:52.741Z,95864.00
2017-12-28T06:16:55.937Z,95864.47
2017-12-28T06:17:58.909Z,95864.38
2017-12-28T06:19:01.841Z,95868.30
2017-12-28T06:20:04.765Z,95876.87
2017-12-28T06:21:07.593Z,95877.11
2017-12-28T06:22:10.469Z,95879.36
2017-12-28T06:23:14.308Z,95877.84
2017-12-28T06:24:18.059Z,95877.59
2017-12-28T06:25:20.905Z,95881.34
2017-12-28T06:26:23.891Z,95875.20
2017-12-28T06:27:26.870Z,95879.48
2017-12-28T06:28:29.814Z,95876.99
2017-12-28T06:29:33.042Z,95878.73
2017-12-28T06:30:36.043Z,95879.02
2017-12-28T06:31:38.999Z,95882.88
2017-12-28T06:32:41.925Z,95889.41
2017-12-28T06:33:44.893Z,95881.57
2017-12-28T06:34:47.874Z,95878.36
2017-12-28T06:35:51.021Z,95879.45
2017-12-28T06:36:53.966Z,95883.17
2017-12-28T06:37:56.962Z,95886.48
2017-12-28T06:38:59.892Z,95891.43
2017-12-28T06:40:02.858Z,95889.34
2017-12-28T06:41:05.764Z,95887.06
2017-12-28T06:42:09.022Z,95895.89
2017-12-28T06:43:11.946Z,95893.33
2017-12-28T06:44:14.791Z,95889.79
2017-12-28T06:45:17.637Z,95896.05
2017-12-28T06:46:20.487Z,95896.30
2017-12-28T06:47:23.908Z,95894.61
2017-12-28T06:48:27.041Z,95904.58
2017-12-28T06:49:29.950Z,95906.19
2017-12-28T06:50:33.854Z,95902.97
2017-12-28T06:51:36.810Z,95903.98
2017-12-28T06:52:39.993Z,95907.61
2017-12-28T06:53:42.956Z,95899.10
2017-12-28T06:54:46.143Z,95900.17
2017-12-28T06:55:49.124Z,95899.13
2017-12-28T06:56:51.996Z,95905.72
2017-12-28T06:57:54.879Z,95910.98
2017-12-28T06:58:57.823Z,95909.59
2017-12-28T07:00:00.698Z,95913.33
2017-12-28T07:01:03.894Z,95917.77
2017-12-28T07:02:06.807Z,95917.84
2017-12-28T07:03:09.790Z,95912.73
2017-12-28T07:04:14.175Z,95915.45
2017-12-28T07:05:17.024Z,95919.45
2017-12-28T07:06:19.938Z,95927.16
2017-12-28T07:07:23.103Z,95929.39
2017-12-28T07:08:26.046Z,95933.78
2017-12-28T07:09:28.979Z,95933.63
2017-12-28T07:10:31.918Z,95930.85
2017-12-28T07:11:34.871Z,95930.59
2017-12-28T07:12:37.829Z,95923.09
2017-12-28T07:13:41.384Z,95938.45
2017-12-28T07:14:44.344Z,95937.09
2017-12-28T07:15:47.431Z,95937.77
2017-12-28T07:16:50.444Z,95932.51
2017-12-28T07:17:53.563Z,95939.52
2017-12-28T07:18:56.766Z,95943.34
2017-12-28T07:20:00.050Z,95942.30
2017-12-28T07:21:03.026Z,95942.05
2017-12-28T07:22:06.033Z,95941.70
2017-12-28T07:23:08.978Z,95943.41
2017-12-28T07:24:12.599Z,95950.06
2017-12-28T07:25:15.536Z,95952.38
2017-12-28T07:26:18.821Z,95954.11
2017-12-28T07:27:21.766Z,95949.31
2017-12-28T07:28:24.705Z,95959.92
2017-12-28T07:29:27.661Z,95955.50
2017-12-28T07:30:30.663Z,95955.61
2017-12-28T07:31:33.847Z,95960.21
2017-12-28T07:32:37.116Z,95957.67
2017-12-28T07:33:40.092Z,95959.67
2017-12-28T07:34:43.081Z,95962.37
2017-12-28T07:35:46.026Z,95964.23
2017-12-28T07:36:49.014Z,95962.15
2017-12-28T07:37:51.935Z,95965.21
2017-12-28T07:38:55.166Z,95963.77
2017-12-28T07:39:58.189Z,95965.66
2017-12-28T07:41:01.148Z,95967.69
2017-12-28T07:42:04.098Z,95964.65
2017-12-28T07:43:07.057Z,95968.89
2017-12-28T07:44:09.985Z,95973.75
2017-12-28T07:45:13.214Z,95973.86
2017-12-28T07:46:16.163Z,95973.84
2017-12-28T07:47:19.052Z,95978.98
2017-12-28T07:48:22.153Z,95982.36
2017-12-28T07:49:24.993Z,95982.66
2017-12-28T07:50:27.890Z,95983.39
2017-12-28T07:51:31.166Z,95973.19
2017-12-28T07:52:34.116Z,95975.56
2017-12-28T07:53:37.026Z,95980.27
2017-12-28T07:54:39.898Z,95971.46
2017-12-28T07:55:42.817Z,95979.16
2017-12-28T07:56:45.955Z,95981.46
2017-12-28T07:57:50.275Z,95980.95
2017-12-28T07:58:53.293Z,95985.28
2017-12-28T07:59:56.405Z,95990.79
2017-12-28T08:00:59.345Z,95985.79
2017-12-28T08:02:02.278Z,95982.27
2017-12-28T08:03:05.922Z,95987.13
2017-12-28T08:04:09.160Z,95987.40
2017-12-28T08:05:12.101Z,95992.45
2017-12-28T08:06:15.048Z,95998.77
2017-12-28T08:07:17.980Z,95997.43
2017-12-28T08:08:20.946Z,96001.05
2017-12-28T08:09:23.876Z,95992.63
2017-12-28T08:10:27.282Z,95991.05
2017-12-28T08:11:30.263Z,96005.60
2017-12-28T08:12:33.195Z,96003.82
2017-12-28T08:13:36.856Z,95998.97
2017-12-28T08:14:39.808Z,96013.05
2017-12-28T08:15:42.747Z,96005.26
2017-12-28T08:16:46.038Z,96012.89
2017-12-28T08:17:49.879Z,96014.66
2017-12-28T08:18:52.804Z,96013.19
2017-12-28T08:19:55.898Z,96010.73
2017-12-28T08:20:59.899Z,96005.06
2017-12-28T08:22:02.887Z,96017.40
2017-12-28T08:23:06.161Z,96006.79
2017-12-28T08:24:09.140Z,96018.66
2017-12-28T08:25:12.145Z,96015.95
2017-12-28T08:26:15.131Z,96012.64
2017-12-28T08:27:18.188Z,96016.68
2017-12-28T08:28:21.092Z,96020.44
2017-12-28T08:29:24.596Z,96019.34
2017-12-28T08:30:27.609Z,96022.47
2017-12-28T08:31:30.556Z,96027.19
2017-12-28T08:32:33.651Z,96028.28
2017-12-28T08:33:36.523Z,96026.52
2017-12-28T08:34:39.486Z,96028.62
2017-12-28T08:35:42.708Z,96023.44
2017-12-28T08:36:45.601Z,96032.61
2017-12-28T08:37:48.508Z,96041.75
2017-12-28T08:38:51.399Z,96045.17
2017-12-28T08:39:54.852Z,96038.42
2017-12-28T08:40:57.768Z,96043.84
2017-12-28T08:42:00.941Z,96045.30
2017-12-28T08:43:03.914Z,96043.94
2017-12-28T08:44:06.856Z,96049.77
2017-12-28T08:45:09.736Z,96046.26
2017-12-28T08:46:12.635Z,96041.96
2017-12-28T08:47:15.554Z,96044.34
2017-12-28T08:48:18.822Z,96045.56
2017-12-28T08:49:21.734Z,96048.30
2017-12-28T08:50:24.681Z,96037.72
2017-12-28T08:51:27.618Z,96052.75
2017-12-28T08:52:30.496Z,96055.11
2017-12-28T08:53:33.471Z,96054.53
2017-12-28T08:54:36.744Z,96059.41
2017-12-28T08:55:39.615Z,96057.66
2017-12-28T08:56:42.576Z,96064.06
2017-12-28T08:57:45.941Z,96064.65
2017-12-28T08:58:48.816Z,96065.44
2017-12-28T08:59:51.799Z,96069.88
2017-12-28T09:00:55.042Z,96065.08
2017-12-28T09:01:57.952Z,96075.92
2017-12-28T09:03:00.841Z,96071.44
2017-12-28T09:04:03.717Z,96078.53
2017-12-28T09:05:06.630Z,96089.81
2017-12-28T09:06:09.678Z,96081.22
2017-12-28T09:07:13.028Z,96093.09
2017-12-28T09:08:15.966Z,96093.98
2017-12-28T09:09:19.211Z,96094.02
2017-12-28T09:10:23.092Z,96091.00
2017-12-28T09:11:26.084Z,96081.69
2017-12-28T09:12:29.117Z,96087.44
2017-12-28T09:13:32.610Z,96095.38
2017-12-28T09:14:35.588Z,96097.95
2017-12-28T09:15:38.576Z,96104.47
2017-12-28T09:16:41.615Z,96102.06
2017-12-28T09:17:44.594Z,96108.47
2017-12-28T09:18:47.545Z,96107.05
2017-12-28T09:19:50.814Z,96107.76
2017-12-28T09:20:53.814Z,96111.25
2017-12-28T09:21:56.811Z,96114.14
2017-12-28T09:22:59.831Z,96117.91
2017-12-28T09:24:02.827Z,96115.22
2017-12-28T09:25:05.899Z,96121.86
2017-12-28T09:26:09.197Z,96125.72
2017-12-28T09:27:12.279Z,96129.11
2017-12-28T09:28:15.647Z,96128.45
2017-12-28T09:29:18.656Z,96126.18
2017-12-28T09:30:21.648Z,96123.86
2017-12-28T09:31:24.654Z,96124.66
2017-12-28T09:32:27.891Z,96137.71
2017-12-28T09:33:30.881Z,96133.91
2017-12-28T09:34:33.822Z,96138.90
2017-12-28T09:35:36.851Z,96137.53
2017-12-28T09:36:39.810Z,96130.65
2017-12-28T09:37:42.853Z,96139.56
2017-12-28T09:38:46.113Z,96151.51
2017-12-28T09:39:49.086Z,96146.67
2017-12-28T09:40:52.418Z,96154.84
2017-12-28T09:41:55.294Z,96156.98
2017-12-28T09:42:59.797Z,96151.17
2017-12-28T09:44:04.221Z,96154.31
2017-12-28T09:45:07.461Z,96157.73
2017-12-28T09:46:10.278Z,96161.91
2017-12-28T09:47:13.243Z,96157.98
2017-12-28T09:48:16.129Z,96167.97
2017-12-28T09:49:18.951Z,96168.91
2017-12-28T09:50:21.885Z,96169.98
2017-12-28T09:51:25.074Z,96173.94
2017-12-28T09:52:28.008Z,96173.39
2017-12-28T09:53:30.944Z,96181.28
2017-12-28T09:54:33.905Z,96173.06
2017-12-28T09:55:36.869Z,96166.85
2017-12-28T09:56:39.801Z,96170.08
2017-12-28T09:57:43.040Z,96173.14
2017-12-28T09:58:45.990Z,96172.87
2017-12-28T09:59:48.839Z,96174.08
2017-12-28T10:00:52.258Z,96179.13
2017-12-28T10:01:55.223Z,96178.27
2017-12-28T10:02:58.182Z,96184.70
2017-12-28T10:04:01.378Z,96186.55
2017-12-28T10:05:04.326Z,96184.38
2017-12-28T10:06:07.440Z,96182.27
2017-12-28T10:07:10.389Z,96189.11
2017-12-28T10:08:13.313Z,96186.55
2017-12-28T10:09:16.478Z,96189.98
2017-12-28T10:10:19.590Z,96185.21
2017-12-28T10:11:22.555Z,96180.27
2017-12-28T10:12:25.545Z,96185.16
2017-12-28T10:13:28.503Z,96192.42
2017-12-28T10:14:31.628Z,96187.02
2017-12-28T10:15:34.648Z,96185.67
2017-12-28T10:16:37.904Z,96183.56
2017-12-28T10:17:40.839Z,96195.68
2017-12-28T10:18:43.748Z,96197.78
2017-12-28T10:19:46.653Z,96195.95
2017-12-28T10:20:49.615Z,96192.09
2017-12-28T10:21:52.570Z,96190.56
2017-12-28T10:22:55.934Z,96184.42
2017-12-28T10:23:58.825Z,96194.92
2017-12-28T10:25:01.756Z,96197.78
2017-12-28T10:26:04.756Z,96199.73
2017-12-28T10:27:07.720Z,96189.39
2017-12-28T10:28:10.676Z,96189.39
2017-12-28T10:29:14.035Z,96196.02
2017-12-28T10:30:17.082Z,96186.23
2017-12-28T10:31:20.050Z,96186.09
2017-12-28T10:32:22.992Z,96165.34
2017-12-28T10:33:26.046Z,96201.36
2017-12-28T10:34:30.010Z,96197.65
2017-12-28T10:35:33.807Z,96193.88
2017-12-28T10:36:36.769Z,96196.27
2017-12-28T10:37:39.705Z,96209.59
2017-12-28T10:38:42.662Z,96211.05
2017-12-28T10:39:45.633Z,96211.56
2017-12-28T10:40:48.535Z,96211.52
2017-12-28T10:41:51.737Z,96210.07
2017-12-28T10:42:54.700Z,96207.48
2017-12-28T10:43:57.593Z,96205.17
2017-12-28T10:45:00.456Z,96197.55
2017-12-28T10:46:03.395Z,96209.34
2017-12-28T10:47:07.125Z,96223.36
2017-12-28T10:48:10.561Z,96221.73
2017-12-28T10:49:13.503Z,96224.61
2017-12-28T10:50:16.464Z,96214.09
2017-12-28T10:51:19.353Z,96227.17
2017-12-28T10:52:22.384Z,96236.59
2017-12-28T10:53:25.351Z,96226.95
2017-12-28T10:54:28.582Z,96226.41
2017-12-28T10:55:33.756Z,96232.67
2017-12-28T10:56:36.735Z,96207.84
2017-12-28T10:57:39.742Z,96233.77
2017-12-28T10:58:42.749Z,96224.89
2017-12-28T10:59:45.708Z,96235.04
2017-12-28T11:00:48.876Z,96226.47
2017-12-28T11:01:51.815Z,96222.49
2017-12-28T11:02:55.235Z,96228.95
2017-12-28T11:03:58.190Z,96234.70
2017-12-28T11:05:01.425Z,96243.64
2017-12-28T11:06:04.355Z,96237.83
2017-12-28T11:07:07.711Z,96233.45
2017-12-28T11:08:10.686Z,96236.06
2017-12-28T11:09:14.043Z,96246.18
2017-12-28T11:10:17.126Z,96250.77
2017-12-28T11:11:20.189Z,96250.00
2017-12-28T11:12:23.142Z,96253.36
2017-12-28T11:13:26.453Z,96258.02
2017-12-28T11:14:29.420Z,96254.05
2017-12-28T11:15:32.503Z,96246.67
2017-12-28T11:16:35.441Z,96252.25
2017-12-28T11:17:38.462Z,96253.61
2017-12-28T11:18:41.429Z,96252.56
2017-12-28T11:19:44.681Z,96244.34
2017-12-28T11:20:47.618Z,96255.48
2017-12-28T11:21:50.626Z,96263.45
2017-12-28T11:22:53.689Z,96261.30
2017-12-28T11:23:56.722Z,96248.58
2017-12-28T11:24:59.701Z,96251.10
2017-12-28T11:26:03.138Z,96228.79
2017-12-28T11:27:06.103Z,96263.43
2017-12-28T11:28:09.062Z,96262.06
2017-12-28T11:29:12.069Z,96267.45
2017-12-28T11:30:19.038Z,96264.56
2017-12-28T11:31:22.002Z,96280.28
2017-12-28T11:32:25.315Z,96275.22
2017-12-28T11:33:28.223Z,96270.94
2017-12-28T11:34:31.168Z,96279.53
2017-12-28T11:35:34.135Z,96282.79
2017-12-28T11:36:37.110Z,96281.63
2017-12-28T11:37:40.113Z,96280.50
2017-12-28T11:38:43.369Z,96289.09
2017-12-28T11:39:46.382Z,96285.77
2017-12-28T11:40:49.351Z,96297.44
2017-12-28T11:41:52.330Z,96286.59
2017-12-28T11:42:55.299Z,96276.92
2017-12-28T11:43:58.269Z,96295.28
2017-12-28T11:45:01.612Z,96293.62
2017-12-28T11:46:04.767Z,96303.79
2017-12-28T11:47:07.734Z,96305.88
2017-12-28T11:48:10.889Z,96300.52
2017-12-28T11:49:17.760Z,96303.50
2017-12-28T11:50:20.852Z,96306.13
2017-12-28T11:51:24.329Z,96305.44
2017-12-28T11:52:31.141Z,96301.70
2017-12-28T11:53:34.284Z,96283.00
2017-12-28T11:54:41.115Z,96288.13
2017-12-28T11:55:44.086Z,96294.13
2017-12-28T11:56:51.298Z,96301.19
2017-12-28T11:57:56.891Z,96304.31
2017-12-28T11:59:00.599Z,96307.42
2017-12-28T12:00:07.466Z,96312.80
2017-12-28T12:01:10.560Z,96305.55
2017-12-28T12:02:13.675Z,96314.61
2017-12-28T12:03:20.533Z,96310.15
2017-12-28T12:04:24.028Z,96328.44
2017-12-28T12:05:27.170Z,96314.97
2017-12-28T12:06:30.731Z,96290.01
2017-12-28T12:07:36.744Z,96322.09
2017-12-28T12:08:43.580Z,96328.92
2017-12-28T12:09:50.082Z,96327.35
2017-12-28T12:10:53.183Z,96334.13
2017-12-28T12:11:56.106Z,96334.41
2017-12-28T12:12:59.088Z,96331.89
2017-12-28T12:14:02.346Z,96332.83
2017-12-28T12:15:05.350Z,96334.63
2017-12-28T12:16:08.317Z,96334.05
2017-12-28T12:17:11.249Z,96339.86
2017-12-28T12:18:14.128Z,96335.64
2017-12-28T12:19:17.022Z,96335.59
2017-12-28T12:20:20.255Z,96340.72
2017-12-28T12:21:23.232Z,96342.80